Time;durP1;ratioP1;P1;durP2;ratioP2;P2;SDS_P1;SDS_P2;PMS_P1;PMS_P2;Temp;Humidity;BMP_temperature;BMP_pressure;BME280_temperature;BME280_humidity;BME280_pressure;Samples;Min_cycle;Max_cycle;Signal;HPM_P1;HPM_P2
2023/09/19 00:01:50;;;;;;;6.90;4.13;;;;;;;26.16;47.65;99686.06;5111043;28;20047;-67
2023/09/19 00:04:23;;;;;;;8.07;4.43;;;;;;;26.14;47.99;99694.47;5109738;28;20069;-67
2023/09/19 00:06:53;;;;;;;5.68;4.00;;;;;;;26.15;48.03;99684.38;5090962;28;20050;-67
2023/09/19 00:09:22;;;;;;;6.97;4.28;;;;;;;26.15;47.79;99693.44;5090624;28;20374;-67
2023/09/19 00:11:54;;;;;;;7.55;4.43;;;;;;;26.14;48.00;99694.47;5090339;28;20531;-67
2023/09/19 00:14:28;;;;;;;5.60;3.85;;;;;;;26.14;47.47;99694.47;5103565;28;20043;-67
2023/09/19 00:17:00;;;;;;;5.68;3.97;;;;;;;26.14;48.02;99693.63;5110714;28;20047;-68
2023/09/19 00:19:30;;;;;;;7.82;4.38;;;;;;;26.12;47.62;99684.78;5110654;28;20047;-67
2023/09/19 00:22:00;;;;;;;5.28;3.95;;;;;;;26.12;47.88;99684.78;5110591;28;20066;-68
2023/09/19 00:24:29;;;;;;;6.10;4.30;;;;;;;26.11;47.58;99689.41;5109952;28;20060;-67
2023/09/19 00:26:58;;;;;;;7.28;3.88;;;;;;;26.10;47.98;99685.00;5110566;28;20051;-67
2023/09/19 00:29:29;;;;;;;6.18;4.18;;;;;;;26.10;47.80;99687.72;5110140;28;20047;-66
2023/09/19 00:31:59;;;;;;;7.00;4.35;;;;;;;26.10;47.94;99682.25;5110459;28;20131;-68
2023/09/19 00:34:27;;;;;;;6.78;3.90;;;;;;;26.10;48.07;99681.44;5110581;28;20051;-68
2023/09/19 00:36:56;;;;;;;6.85;4.40;;;;;;;26.08;47.57;99681.63;5110170;28;20057;-68
2023/09/19 00:39:25;;;;;;;7.10;3.95;;;;;;;26.07;48.00;99677.22;5110624;28;20404;-68
2023/09/19 00:41:54;;;;;;;6.13;3.97;;;;;;;26.08;47.67;99678.06;5110394;28;20075;-67
2023/09/19 00:44:23;;;;;;;6.07;4.07;;;;;;;26.07;47.70;99673.66;5092244;28;20043;-68
2023/09/19 00:46:53;;;;;;;6.15;3.80;;;;;;;26.06;47.87;99681.00;5110440;28;20461;-67
2023/09/19 00:49:25;;;;;;;6.97;3.75;;;;;;;26.06;47.64;99686.47;5110305;28;20048;-67
2023/09/19 00:51:54;;;;;;;6.23;4.07;;;;;;;26.04;47.76;99677.63;5110556;28;20085;-67
2023/09/19 00:54:23;;;;;;;7.28;3.70;;;;;;;26.04;47.72;99677.63;5110193;28;20288;-67
2023/09/19 00:56:54;;;;;;;6.30;3.85;;;;;;;26.03;48.13;99673.19;5110154;28;20059;-66
2023/09/19 00:59:22;;;;;;;9.82;4.30;;;;;;;26.02;47.83;99674.25;5110315;28;20047;-68
2023/09/19 01:01:53;;;;;;;7.07;3.78;;;;;;;26.02;47.88;99666.06;5110133;28;20048;-66
2023/09/19 01:04:23;;;;;;;7.45;4.50;;;;;;;26.01;47.78;99672.56;5110201;28;20043;-68
2023/09/19 01:06:53;;;;;;;7.18;4.10;;;;;;;26.01;48.15;99666.25;5089625;28;20057;-66
2023/09/19 01:09:21;;;;;;;6.13;4.03;;;;;;;26.00;47.96;99664.59;5089595;28;20127;-67
2023/09/19 01:11:53;;;;;;;6.43;4.05;;;;;;;25.97;47.99;99663.13;5089565;28;20421;-68
2023/09/19 01:14:30;;;;;;;5.50;3.73;;;;;;;25.96;47.98;99659.53;5089776;28;20075;-67
2023/09/19 01:17:07;;;;;;;7.03;3.90;;;;;;;25.97;48.19;99668.59;5093422;28;20048;-66
2023/09/19 01:20:11;;;;;;;6.32;4.00;;;;;;;25.95;47.92;99678.84;5093122;28;20048;-67
2023/09/19 01:22:51;;;;;;;7.35;4.20;;;;;;;25.95;48.18;99676.94;5093964;28;20063;-67
2023/09/19 01:25:51;;;;;;;6.45;4.25;;;;;;;25.95;48.03;99667.91;5093371;28;20542;-67
2023/09/19 01:28:36;;;;;;;6.15;4.18;;;;;;;25.95;48.54;99662.44;5088057;28;20044;-66
2023/09/19 01:31:10;;;;;;;5.68;3.90;;;;;;;25.93;48.02;99667.28;5093496;28;20498;-65
2023/09/19 01:33:59;;;;;;;6.65;4.00;;;;;;;25.93;48.43;99665.41;5093186;28;20094;-67
2023/09/19 01:36:34;;;;;;;5.05;3.78;;;;;;;25.92;48.26;99662.88;5093260;28;20044;-66
2023/09/19 01:39:10;;;;;;;7.03;4.15;;;;;;;25.93;48.16;99664.56;5092751;28;20071;-67
2023/09/19 01:42:05;;;;;;;5.90;4.10;;;;;;;25.92;48.45;99671.06;5093481;28;20108;-66
2023/09/19 01:44:45;;;;;;;6.78;4.20;;;;;;;25.89;48.67;99655.09;5090687;28;20044;-67
2023/09/19 01:47:25;;;;;;;7.68;4.10;;;;;;;25.89;48.68;99653.22;5092717;28;20062;-67
2023/09/19 01:50:02;;;;;;;6.05;4.20;;;;;;;25.89;48.32;99652.38;5092844;28;20393;-67
2023/09/19 01:52:37;;;;;;;5.93;4.18;;;;;;;25.85;48.41;99646.47;5092925;28;20059;-66
2023/09/19 01:55:10;;;;;;;5.75;4.07;;;;;;;25.87;48.66;99651.75;5092504;28;20131;-66
2023/09/19 01:57:47;;;;;;;5.93;3.78;;;;;;;25.86;48.65;99652.75;5092646;28;20044;-66
2023/09/19 02:00:19;;;;;;;6.60;3.97;;;;;;;25.86;48.65;99652.75;5093268;28;20103;-68
2023/09/19 02:02:50;;;;;;;6.27;4.30;;;;;;;25.87;48.53;99654.47;5093136;28;20051;-67
2023/09/19 02:05:24;;;;;;;8.95;4.63;;;;;;;25.85;48.62;99648.34;5100599;28;20303;-67
2023/09/19 02:07:53;;;;;;;5.78;4.30;;;;;;;25.85;48.83;99648.34;5113349;28;20061;-66
2023/09/19 02:10:22;;;;;;;5.80;4.18;;;;;;;25.85;48.85;99662.84;5113204;28;20120;-68
2023/09/19 02:12:51;;;;;;;7.15;4.28;;;;;;;25.84;48.28;99654.88;5113083;28;20200;-69
2023/09/19 02:15:20;;;;;;;6.55;4.50;;;;;;;25.84;48.76;99657.59;5113016;28;20090;-67
2023/09/19 02:17:49;;;;;;;7.53;4.50;;;;;;;25.82;48.52;99660.53;5113217;28;20435;-67
2023/09/19 02:20:20;;;;;;;7.13;4.35;;;;;;;25.82;48.62;99662.44;5113025;28;20451;-67
2023/09/19 02:22:49;;;;;;;6.20;4.03;;;;;;;25.81;48.99;99666.22;5112736;28;20043;-67
2023/09/19 02:25:19;;;;;;;6.40;4.28;;;;;;;25.81;48.99;99661.59;5112353;28;20065;-67
2023/09/19 02:27:48;;;;;;;6.90;4.18;;;;;;;25.80;49.06;99653.59;5111931;28;20043;-66
2023/09/19 02:30:20;;;;;;;6.25;4.20;;;;;;;25.80;49.02;99653.59;5112502;28;20051;-67
2023/09/19 02:32:50;;;;;;;6.03;4.60;;;;;;;25.79;48.92;99650.03;5112633;28;20118;-67
2023/09/19 02:35:19;;;;;;;7.28;4.82;;;;;;;25.79;48.72;99651.91;5112535;28;20044;-66
2023/09/19 02:37:48;;;;;;;7.10;4.80;;;;;;;25.77;49.12;99649.41;5112945;28;20046;-66
2023/09/19 02:40:21;;;;;;;5.43;4.07;;;;;;;25.78;49.00;99647.50;5112610;28;20527;-67
2023/09/19 02:42:53;;;;;;;6.93;4.80;;;;;;;25.77;49.23;99648.53;5112380;28;20081;-67
2023/09/19 02:45:23;;;;;;;7.78;4.50;;;;;;;25.76;48.84;99653.16;5112069;28;20054;-66
2023/09/19 02:47:53;;;;;;;6.75;4.63;;;;;;;25.74;49.10;99657.13;5111932;28;20052;-67
2023/09/19 02:50:21;;;;;;;7.35;4.75;;;;;;;25.75;48.96;99658.81;5111841;28;20483;-66
2023/09/19 02:52:49;;;;;;;7.20;4.70;;;;;;;25.75;49.16;99661.56;5111907;28;20051;-66
2023/09/19 02:55:19;;;;;;;6.72;4.50;;;;;;;25.74;49.21;99662.59;5112077;28;20051;-67
2023/09/19 02:57:49;;;;;;;8.00;4.63;;;;;;;25.73;49.39;99652.72;5112164;28;20090;-67
2023/09/19 03:00:21;;;;;;;6.95;4.32;;;;;;;25.72;49.52;99656.50;5111777;28;20130;-66
2023/09/19 03:02:49;;;;;;;6.40;4.68;;;;;;;25.72;49.07;99651.03;5112229;28;20083;-67
2023/09/19 03:05:20;;;;;;;7.68;4.75;;;;;;;25.72;49.25;99646.41;5111572;28;20455;-67
2023/09/19 03:07:50;;;;;;;6.38;4.30;;;;;;;25.69;49.48;99647.66;5111706;28;20632;-67
2023/09/19 03:10:19;;;;;;;7.90;4.80;;;;;;;25.69;49.40;99638.63;5111700;28;20050;-67
2023/09/19 03:12:47;;;;;;;5.95;4.38;;;;;;;25.70;49.42;99651.25;5111196;28;20131;-66
2023/09/19 03:15:16;;;;;;;6.93;4.70;;;;;;;25.67;49.60;99652.47;5112178;28;20189;-66
2023/09/19 03:17:45;;;;;;;7.55;4.03;;;;;;;25.67;49.73;99652.47;5111730;28;20083;-66
2023/09/19 03:20:17;;;;;;;7.80;4.50;;;;;;;25.67;49.49;99649.75;5093529;28;20071;-67
2023/09/19 03:22:48;;;;;;;7.32;4.70;;;;;;;25.66;49.50;99649.94;5111422;28;20085;-66
2023/09/19 03:25:17;;;;;;;6.68;4.50;;;;;;;25.66;49.68;99648.03;5110933;28;20043;-66
2023/09/19 03:27:46;;;;;;;9.30;4.68;;;;;;;25.64;49.83;99647.41;5111268;28;20055;-66
2023/09/19 03:30:14;;;;;;;8.25;4.60;;;;;;;25.64;49.95;99643.84;5111157;28;20047;-66
2023/09/19 03:32:47;;;;;;;7.75;4.70;;;;;;;25.64;49.54;99643.84;5111291;28;20401;-66
2023/09/19 03:35:18;;;;;;;7.22;4.47;;;;;;;25.63;49.52;99651.19;5111028;28;20116;-67
2023/09/19 03:37:48;;;;;;;8.02;4.75;;;;;;;25.63;49.84;99653.91;5110788;28;20094;-66
2023/09/19 03:40:17;;;;;;;6.57;4.82;;;;;;;25.62;49.54;99652.25;5110872;28;20408;-67
2023/09/19 03:42:46;;;;;;;6.32;4.47;;;;;;;25.61;50.03;99656.03;5110891;28;20053;-67
2023/09/19 03:45:14;;;;;;;6.95;4.78;;;;;;;25.60;49.99;99657.06;5110809;28;20165;-66
2023/09/19 03:47:42;;;;;;;7.53;4.80;;;;;;;25.61;49.87;99646.97;5111113;28;20506;-67
2023/09/19 03:50:12;;;;;;;7.57;5.20;;;;;;;25.60;49.63;99654.34;5111109;28;20048;-67
2023/09/19 03:52:40;;;;;;;9.48;5.20;;;;;;;25.59;50.00;99655.38;5111037;28;20079;-67
2023/09/19 03:55:10;;;;;;;5.85;4.30;;;;;;;25.60;50.06;99667.16;5110929;28;20052;-67
2023/09/19 03:57:39;;;;;;;5.57;4.38;;;;;;;25.58;49.98;99653.69;5110609;28;20127;-67
2023/09/19 04:00:11;;;;;;;7.13;4.95;;;;;;;25.59;49.96;99657.28;5110770;28;20054;-67
2023/09/19 04:02:40;;;;;;;;;;;;;;;25.58;50.20;99664.63;5110872;28;20121;-66
2023/09/19 04:05:10;;;;;;;7.65;4.65;;;;;;;25.57;50.27;99665.66;5110174;28;19920;-66
2023/09/19 04:07:39;;;;;;;6.65;4.70;;;;;;;25.56;50.16;99674.88;5110373;28;20047;-66
2023/09/19 04:10:11;;;;;;;7.88;5.05;;;;;;;25.54;49.84;99668.78;5110590;28;20054;-66
2023/09/19 04:12:41;;;;;;;8.55;5.53;;;;;;;25.55;50.10;99667.75;5110124;28;20051;-66
2023/09/19 04:15:13;;;;;;;6.65;4.63;;;;;;;25.52;50.03;99664.59;5110736;28;20051;-66
2023/09/19 04:17:41;;;;;;;7.72;4.85;;;;;;;25.54;50.16;99663.34;5110861;28;20074;-66
2023/09/19 04:20:12;;;;;;;9.20;5.22;;;;;;;25.52;50.05;99662.69;5110554;28;20044;-66
2023/09/19 04:22:40;;;;;;;7.30;4.90;;;;;;;25.53;50.37;99674.47;5110277;28;20043;-66
2023/09/19 04:25:09;;;;;;;10.35;4.78;;;;;;;25.53;50.30;99669.00;5110002;28;20186;-66
2023/09/19 04:27:38;;;;;;;7.63;4.80;;;;;;;25.52;49.83;99667.31;5110311;28;20108;-66
2023/09/19 04:30:11;;;;;;;8.45;5.05;;;;;;;25.51;50.51;99665.63;5110520;28;20043;-66
2023/09/19 04:32:40;;;;;;;8.93;4.90;;;;;;;25.50;50.01;99673.00;5110228;28;20146;-66
2023/09/19 04:35:10;;;;;;;7.55;4.85;;;;;;;25.49;50.47;99679.50;5109990;28;20130;-66
2023/09/19 04:37:40;;;;;;;7.70;4.30;;;;;;;25.50;50.25;99688.53;5110194;28;20463;-66
2023/09/19 04:40:13;;;;;;;7.35;4.30;;;;;;;25.47;50.38;99691.63;5110298;28;20058;-65
2023/09/19 04:42:42;;;;;;;7.72;3.97;;;;;;;25.46;50.21;99701.72;5110147;28;20130;-67
2023/09/19 04:45:12;;;;;;;6.45;4.10;;;;;;;25.46;50.23;99699.00;5110785;28;20051;-67
2023/09/19 04:47:43;;;;;;;7.05;4.38;;;;;;;25.45;50.64;99697.31;5110078;28;20073;-66
2023/09/19 04:50:13;;;;;;;6.15;4.13;;;;;;;25.45;50.63;99713.69;5111781;28;20456;-66
2023/09/19 04:52:44;;;;;;;6.43;4.20;;;;;;;25.45;50.30;99707.38;5114366;28;20063;-66
2023/09/19 04:55:16;;;;;;;5.57;3.55;;;;;;;25.44;50.60;99703.81;5114394;28;20171;-67
2023/09/19 04:57:46;;;;;;;6.33;3.53;;;;;;;25.44;50.43;99713.91;5114445;28;20389;-66
2023/09/19 05:00:19;;;;;;;4.95;3.53;;;;;;;25.40;50.54;99717.03;5114237;28;20039;-66
2023/09/19 05:02:50;;;;;;;5.15;3.50;;;;;;;25.42;50.58;99716.00;5114029;28;20044;-65
2023/09/19 05:05:19;;;;;;;5.47;3.25;;;;;;;25.39;50.72;99712.63;5114059;28;20463;-67
2023/09/19 05:07:48;;;;;;;4.50;3.08;;;;;;;25.37;50.74;99711.97;5113730;28;20062;-67
2023/09/19 05:10:18;;;;;;;5.97;3.33;;;;;;;25.38;50.63;99721.88;5114484;28;20047;-66
2023/09/19 05:12:48;;;;;;;5.97;3.28;;;;;;;25.37;50.57;99719.31;5113489;28;20482;-67
2023/09/19 05:15:18;;;;;;;6.07;2.90;;;;;;;25.35;50.76;99730.44;5096807;28;20043;-66
2023/09/19 05:17:50;;;;;;;4.97;3.00;;;;;;;25.35;50.97;99737.78;5115720;28;20051;-65
2023/09/19 05:20:29;;;;;;;5.65;2.90;;;;;;;25.33;50.76;99742.59;5115450;28;20043;-66
2023/09/19 05:23:02;;;;;;;4.43;2.70;;;;;;;25.31;50.87;99739.25;5115369;28;20134;-66
2023/09/19 05:25:37;;;;;;;4.63;2.60;;;;;;;25.31;50.81;99737.34;5115537;28;20097;-67
2023/09/19 05:28:07;;;;;;;5.25;2.42;;;;;;;25.31;50.86;99747.44;5114806;28;20557;-66
2023/09/19 05:30:38;;;;;;;3.28;2.28;;;;;;;25.30;50.82;99752.03;5114958;28;20043;-67
2023/09/19 05:33:07;;;;;;;4.47;1.90;;;;;;;25.30;50.78;99762.13;5114597;28;20053;-66
2023/09/19 05:35:41;;;;;;;4.53;2.42;;;;;;;25.29;50.83;99766.75;5114955;28;20081;-66
2023/09/19 05:38:12;;;;;;;3.50;2.20;;;;;;;25.29;50.92;99765.91;5114953;28;20047;-66
2023/09/19 05:40:42;;;;;;;4.88;2.20;;;;;;;25.28;50.87;99765.03;5114993;28;20047;-66
2023/09/19 05:43:10;;;;;;;3.60;2.05;;;;;;;25.28;50.96;99769.63;5114409;28;20044;-66
2023/09/19 05:45:40;;;;;;;5.32;2.30;;;;;;;25.27;51.01;99757.03;5114139;28;20043;-66
2023/09/19 05:48:11;;;;;;;4.47;2.00;;;;;;;25.24;51.07;99760.19;5114308;28;20052;-66
2023/09/19 05:50:39;;;;;;;2.95;1.77;;;;;;;25.25;51.03;99772.78;5114286;28;20044;-65
2023/09/19 05:53:14;;;;;;;4.93;2.30;;;;;;;25.25;51.06;99756.41;5114081;28;20523;-66
2023/09/19 05:55:42;;;;;;;3.58;2.00;;;;;;;25.23;51.11;99761.22;5114693;28;20063;-65
2023/09/19 05:58:13;;;;;;;4.07;2.00;;;;;;;25.24;50.88;99762.91;5114882;28;20485;-66
2023/09/19 06:00:44;;;;;;;3.00;1.75;;;;;;;25.22;50.86;99776.75;5114090;28;20047;-66
2023/09/19 06:03:13;;;;;;;2.60;1.60;;;;;;;25.22;50.97;99776.75;5114035;28;20079;-66
2023/09/19 06:05:42;;;;;;;4.90;1.60;;;;;;;25.20;51.05;99778.00;5114410;28;20248;-67
2023/09/19 06:08:10;;;;;;;4.10;1.63;;;;;;;25.20;50.80;99772.53;5114291;28;20050;-66
2023/09/19 06:10:39;;;;;;;3.28;1.80;;;;;;;25.20;50.70;99775.28;5114298;28;20101;-67
2023/09/19 06:13:09;;;;;;;2.45;1.50;;;;;;;25.20;51.13;99783.47;5114372;28;20048;-66
2023/09/19 06:15:38;;;;;;;2.90;1.33;;;;;;;25.18;51.17;99782.78;5111366;28;20044;-67
2023/09/19 06:18:14;;;;;;;4.22;1.70;;;;;;;25.17;51.27;99778.38;5113959;28;20055;-66
2023/09/19 06:20:44;;;;;;;3.13;1.70;;;;;;;25.16;51.21;99791.19;5120270;27;20202;-66
2023/09/19 06:23:13;;;;;;;2.50;1.40;;;;;;;25.14;51.03;99790.53;5122999;27;20393;-66
2023/09/19 06:25:43;;;;;;;2.45;1.35;;;;;;;25.14;50.99;99789.69;5124559;27;20045;-66
2023/09/19 06:28:13;;;;;;;2.25;1.30;;;;;;;25.13;51.32;99796.19;5125103;27;20051;-66
2023/09/19 06:30:42;;;;;;;3.05;1.42;;;;;;;25.13;51.20;99790.75;5122569;27;20047;-67
2023/09/19 06:33:12;;;;;;;2.22;1.33;;;;;;;25.09;51.04;99782.97;5130843;27;20148;-69
2023/09/19 06:35:44;;;;;;;2.30;1.45;;;;;;;25.10;50.77;99801.03;5134554;27;20051;-67
2023/09/19 06:38:13;;;;;;;1.98;1.30;;;;;;;25.09;50.99;99799.34;5134693;27;20126;-67
2023/09/19 06:40:42;;;;;;;2.33;1.50;;;;;;;25.09;50.87;99802.06;5136076;27;20103;-64
2023/09/19 06:43:11;;;;;;;3.03;1.48;;;;;;;25.09;51.20;99803.91;5127641;27;20039;-66
2023/09/19 06:45:42;;;;;;;2.42;1.30;;;;;;;25.06;51.43;99799.69;5119995;27;20104;-66
2023/09/19 06:48:12;;;;;;;2.75;1.30;;;;;;;25.07;51.14;99812.31;5122593;27;20404;-65
2023/09/19 06:50:44;;;;;;;2.92;1.25;;;;;;;25.05;50.90;99828.03;5124630;27;20045;-66
2023/09/19 06:53:12;;;;;;;1.80;1.20;;;;;;;25.05;51.25;99808.94;5124000;27;20066;-66
2023/09/19 06:55:40;;;;;;;3.25;1.20;;;;;;;25.04;51.42;99823.63;5122815;27;20089;-66
2023/09/19 06:58:10;;;;;;;1.65;1.20;;;;;;;25.04;51.24;99829.06;5120642;27;20135;-66
2023/09/19 07:00:39;;;;;;;2.40;1.23;;;;;;;25.03;51.03;99834.75;5121854;27;20071;-67
2023/09/19 07:03:11;;;;;;;3.28;1.30;;;;;;;25.02;51.03;99820.25;5111513;27;20496;-66
2023/09/19 07:05:44;;;;;;;;;;;;;;;25.03;51.06;99837.47;5123049;27;20047;-67
2023/09/19 07:08:13;;;;;;;2.30;1.17;;;;;;;25.03;51.13;99838.31;5098824;27;19927;-66
2023/09/19 07:10:48;;;;;;;2.25;1.27;;;;;;;25.03;51.06;99843.75;5092216;28;20502;-66
2023/09/19 07:13:17;;;;;;;2.03;1.20;;;;;;;25.01;51.29;99845.81;5092185;28;20054;-66
2023/09/19 07:15:47;;;;;;;2.70;1.25;;;;;;;25.01;51.48;99855.88;5096984;28;20086;-66
2023/09/19 07:18:16;;;;;;;2.22;1.30;;;;;;;25.00;51.05;99851.47;5112134;27;20047;-66
2023/09/19 07:20:48;;;;;;;2.35;1.10;;;;;;;24.98;51.14;99857.09;5111314;28;20058;-66
2023/09/19 07:23:21;;;;;;;1.88;1.15;;;;;;;24.97;51.40;99855.41;5112147;28;20039;-67
2023/09/19 07:25:50;;;;;;;;;;;;;;;24.97;51.29;99869.06;5113347;28;20051;-67
2023/09/19 07:28:19;;;;;;;2.65;1.08;;;;;;;24.95;51.45;99867.56;5113276;28;19920;-67
2023/09/19 07:30:47;;;;;;;2.05;1.10;;;;;;;24.96;51.25;99867.38;5113096;28;20055;-67
2023/09/19 07:33:15;;;;;;;2.72;1.10;;;;;;;24.95;51.46;99862.13;5112929;28;20047;-67
2023/09/19 07:35:48;;;;;;;2.78;1.10;;;;;;;24.94;51.35;99877.63;5112935;28;20039;-67
2023/09/19 07:38:17;;;;;;;2.10;0.98;;;;;;;24.92;51.38;99868.81;5112785;28;20097;-67
2023/09/19 07:40:45;;;;;;;1.75;0.90;;;;;;;24.91;51.47;99866.28;5112839;28;20050;-67
2023/09/19 07:43:14;;;;;;;1.33;0.80;;;;;;;24.92;51.83;99877.00;5112957;28;20101;-67
2023/09/19 07:45:42;;;;;;;2.65;1.00;;;;;;;24.91;51.76;99880.75;5112584;28;20040;-67
2023/09/19 07:48:14;;;;;;;1.35;0.75;;;;;;;24.90;51.62;99886.38;5112535;28;20092;-67
2023/09/19 07:50:44;;;;;;;0.98;0.68;;;;;;;24.89;51.55;99885.53;5112677;28;20047;-67
2023/09/19 07:53:15;;;;;;;1.63;0.88;;;;;;;24.88;51.57;99897.50;5112514;28;20088;-67
2023/09/19 07:55:47;;;;;;;1.98;1.08;;;;;;;24.88;51.74;99893.94;5112747;28;20048;-68
2023/09/19 07:58:16;;;;;;;2.17;1.10;;;;;;;24.91;51.44;99899.84;5112784;28;20079;-68
2023/09/19 08:00:45;;;;;;;2.08;1.10;;;;;;;24.89;51.74;99896.47;5112222;28;20499;-68
2023/09/19 08:03:23;;;;;;;1.27;0.73;;;;;;;24.90;51.56;99903.63;5112527;28;20053;-67
2023/09/19 08:05:51;;;;;;;1.70;0.80;;;;;;;24.91;51.45;99908.03;5112508;28;20143;-67
2023/09/19 08:08:22;;;;;;;2.08;1.00;;;;;;;24.91;51.80;99905.31;5112611;28;20048;-68
2023/09/19 08:10:55;;;;;;;1.48;0.80;;;;;;;24.89;51.47;99907.38;5112431;28;20393;-67
2023/09/19 08:13:24;;;;;;;1.23;0.70;;;;;;;24.89;51.71;99915.56;5112280;28;20048;-67
2023/09/19 08:15:53;;;;;;;1.88;0.85;;;;;;;24.89;51.47;99920.16;5112257;28;20086;-67
2023/09/19 08:18:22;;;;;;;1.70;1.02;;;;;;;24.89;51.84;99922.88;5112292;28;20043;-67
2023/09/19 08:20:51;;;;;;;1.63;1.00;;;;;;;24.88;51.63;99927.50;5112439;28;20080;-67
2023/09/19 08:23:21;;;;;;;1.30;0.70;;;;;;;24.87;51.76;99934.00;5112136;28;20052;-67
2023/09/19 08:25:50;;;;;;;1.10;0.82;;;;;;;24.87;51.75;99947.63;5111597;28;20051;-67
2023/09/19 08:28:24;;;;;;;1.52;0.80;;;;;;;24.87;51.77;99958.56;5111881;28;20075;-66
2023/09/19 08:30:54;;;;;;;1.83;0.75;;;;;;;24.84;52.08;99961.66;5111987;28;20090;-67
2023/09/19 08:33:22;;;;;;;2.13;1.02;;;;;;;24.84;52.19;99950.75;5112313;28;20047;-66
2023/09/19 08:35:51;;;;;;;1.95;0.93;;;;;;;24.84;52.10;99953.50;5112280;28;20175;-67
2023/09/19 08:38:19;;;;;;;1.88;0.90;;;;;;;24.82;52.27;99953.69;5111739;28;20039;-66
2023/09/19 08:40:49;;;;;;;1.17;0.70;;;;;;;24.83;52.07;99954.53;5111953;28;20051;-67
2023/09/19 08:43:18;;;;;;;1.17;0.80;;;;;;;24.83;52.09;99957.25;5111796;28;20043;-68
2023/09/19 08:45:46;;;;;;;1.42;0.85;;;;;;;24.80;52.01;99958.50;5112070;28;20047;-69
2023/09/19 08:48:24;;;;;;;1.42;0.80;;;;;;;24.80;52.54;99963.94;5111937;28;20044;-68
2023/09/19 08:50:58;;;;;;;2.22;0.93;;;;;;;24.81;52.21;99978.44;5112105;28;20069;-68
2023/09/19 08:53:37;;;;;;;1.30;0.70;;;;;;;24.79;52.25;99985.94;5111923;28;20050;-67
2023/09/19 08:56:17;;;;;;;2.38;0.90;;;;;;;24.78;52.40;99992.44;5111811;28;20051;-68
2023/09/19 08:58:49;;;;;;;0.93;0.70;;;;;;;24.75;52.46;99992.81;5111844;28;20056;-68
2023/09/19 09:01:24;;;;;;;1.88;0.88;;;;;;;24.78;52.69;100003.34;5111697;28;20047;-68
2023/09/19 09:03:54;;;;;;;1.95;0.82;;;;;;;24.77;52.65;100005.22;5111780;28;20451;-68
2023/09/19 09:06:24;;;;;;;1.50;0.90;;;;;;;24.76;52.30;100003.53;5111571;28;20054;-68
2023/09/19 09:08:53;;;;;;;1.65;0.85;;;;;;;24.77;52.58;100004.38;5111557;28;20047;-67
2023/09/19 09:11:27;;;;;;;1.73;0.95;;;;;;;24.76;52.71;99994.50;5111405;28;20525;-66
2023/09/19 09:13:57;;;;;;;1.35;0.90;;;;;;;24.76;52.72;99992.63;5111494;28;20071;-67
2023/09/19 09:16:29;;;;;;;1.45;0.75;;;;;;;24.78;52.66;99984.25;5111541;28;20075;-66
2023/09/19 09:18:57;;;;;;;1.98;0.68;;;;;;;24.78;52.48;99966.00;5111489;28;20067;-67
2023/09/19 09:21:26;;;;;;;1.73;1.08;;;;;;;24.79;52.57;99954.03;5111623;28;20051;-67
2023/09/19 09:23:56;;;;;;;2.30;1.10;;;;;;;24.80;52.41;99953.03;5111520;28;20052;-66
2023/09/19 09:26:43;;;;;;;1.50;0.80;;;;;;;24.81;52.60;99972.97;5093729;28;20047;-67
2023/09/19 09:29:12;;;;;;;2.20;1.20;;;;;;;24.83;52.64;99968.16;5111376;28;20454;-67
2023/09/19 09:31:43;;;;;;;3.33;1.20;;;;;;;24.82;52.44;99950.97;5111759;28;20085;-67
2023/09/19 09:34:13;;;;;;;2.22;1.10;;;;;;;24.85;52.45;99938.81;5111641;28;20048;-67
2023/09/19 09:36:42;;;;;;;1.80;0.80;;;;;;;24.86;52.44;99940.50;5113861;28;20151;-67
2023/09/19 09:39:18;;;;;;;1.77;1.00;;;;;;;24.86;52.60;99924.13;5115094;28;20131;-67
2023/09/19 09:41:48;;;;;;;1.23;0.82;;;;;;;24.86;52.33;99918.69;5115017;28;20113;-67
2023/09/19 09:44:18;;;;;;;1.83;1.10;;;;;;;24.86;52.51;99928.75;5115248;28;20052;-67
2023/09/19 09:47:27;;;;;;;1.27;0.85;;;;;;;24.86;52.33;99935.03;5115376;28;20094;-67
2023/09/19 09:49:54;;;;;;;2.10;1.10;;;;;;;24.84;52.68;99932.50;5114786;28;20109;-67
2023/09/19 09:52:26;;;;;;;1.73;0.90;;;;;;;24.85;52.71;99952.44;5115271;28;20047;-68
2023/09/19 09:55:05;;;;;;;1.42;0.88;;;;;;;24.84;52.70;99964.41;5115249;28;20069;-68
2023/09/19 09:57:35;;;;;;;2.10;1.00;;;;;;;24.84;52.97;99978.03;5114926;28;20048;-68
2023/09/19 10:00:20;;;;;;;1.95;0.88;;;;;;;24.85;52.83;99979.72;5114910;28;20135;-68
2023/09/19 10:02:48;;;;;;;1.50;0.75;;;;;;;24.84;52.93;99987.06;5114711;28;20048;-67
2023/09/19 10:05:34;;;;;;;2.10;0.95;;;;;;;24.84;53.04;99981.63;5114823;28;20058;-67
2023/09/19 10:08:18;;;;;;;3.00;0.80;;;;;;;24.86;52.96;99978.69;5114860;28;20441;-67
2023/09/19 10:10:53;;;;;;;1.80;0.88;;;;;;;24.86;52.74;99967.78;5114257;28;20087;-68
2023/09/19 10:13:30;;;;;;;1.83;0.82;;;;;;;24.90;52.91;99966.38;5114605;28;20040;-68
2023/09/19 10:16:05;;;;;;;2.60;0.85;;;;;;;24.92;52.87;99971.63;5114722;28;20040;-67
2023/09/19 10:18:38;;;;;;;1.67;0.90;;;;;;;24.91;52.96;99962.59;5114371;28;20048;-67
2023/09/19 10:21:10;;;;;;;2.00;1.05;;;;;;;24.93;53.10;99976.03;5114311;28;20044;-67
2023/09/19 10:23:42;;;;;;;2.00;0.80;;;;;;;24.92;53.26;99982.53;5114333;28;20125;-67
2023/09/19 10:26:12;;;;;;;1.48;0.90;;;;;;;24.92;53.23;99982.53;5114299;28;20501;-67
2023/09/19 10:28:44;;;;;;;3.00;1.10;;;;;;;24.93;52.92;99984.22;5095989;28;20127;-67
2023/09/19 10:31:20;;;;;;;2.45;1.00;;;;;;;24.93;53.35;99978.78;5113923;28;20134;-67
2023/09/19 10:33:51;;;;;;;1.50;0.77;;;;;;;24.94;53.02;99980.47;5113832;28;20051;-67
2023/09/19 10:36:24;;;;;;;2.92;1.08;;;;;;;24.94;52.99;99992.22;5113953;28;20112;-67
2023/09/19 10:38:57;;;;;;;2.63;1.00;;;;;;;24.95;53.13;99999.38;5114036;28;20126;-67
2023/09/19 10:41:28;;;;;;;1.50;0.93;;;;;;;24.93;53.26;99990.53;5095913;28;20067;-67
2023/09/19 10:43:59;;;;;;;2.15;0.80;;;;;;;24.96;53.05;99992.88;5113447;28;20104;-67
2023/09/19 10:46:28;;;;;;;1.33;0.85;;;;;;;24.96;53.55;99984.69;5113570;28;20051;-67
2023/09/19 10:49:00;;;;;;;2.47;0.85;;;;;;;24.95;53.72;99990.34;5113158;28;20079;-67
2023/09/19 10:51:32;;;;;;;1.98;1.08;;;;;;;24.96;53.44;99994.75;5113664;28;20065;-67
2023/09/19 10:54:07;;;;;;;2.55;1.00;;;;;;;24.95;53.84;99993.91;5113639;28;20176;-67
2023/09/19 10:56:38;;;;;;;1.15;0.80;;;;;;;24.96;53.36;100000.22;5113718;28;20420;-67
2023/09/19 10:59:10;;;;;;;3.05;1.00;;;;;;;24.96;53.72;100000.22;5113469;28;20044;-67
2023/09/19 11:01:44;;;;;;;;;;;;;;;24.97;53.61;100004.63;5114184;28;20051;-67
2023/09/19 11:04:24;;;;;;;2.35;1.10;;;;;;;24.96;53.77;99995.59;5113617;28;19923;-67
2023/09/19 11:07:04;;;;;;;1.70;1.13;;;;;;;24.94;54.03;99992.22;5113553;28;20055;-68
2023/09/19 11:09:47;;;;;;;2.13;0.80;;;;;;;24.96;53.77;100001.06;5113418;28;20101;-68
2023/09/19 11:12:36;;;;;;;;;;;;;;;24.98;53.83;100006.31;5113543;28;20456;-68
2023/09/19 11:15:08;;;;;;;1.88;1.05;;;;;;;24.98;53.76;100015.34;5113564;28;19919;-68
2023/09/19 11:17:37;;;;;;;1.57;0.80;;;;;;;25.00;53.66;100018.75;5113206;28;20051;-68
2023/09/19 11:20:26;;;;;;;1.85;0.98;;;;;;;25.02;53.94;100010.41;5113165;28;20551;-68
2023/09/19 11:23:17;;;;;;;1.52;1.00;;;;;;;25.08;53.31;100015.91;5113395;28;20126;-68
2023/09/19 11:25:49;;;;;;;1.92;0.88;;;;;;;25.16;53.77;100012.22;5113173;28;20036;-67
2023/09/19 11:28:46;;;;;;;1.50;0.85;;;;;;;25.21;53.64;100014.41;5113060;28;20047;-67
2023/09/19 11:31:53;;;;;;;2.80;1.20;;;;;;;25.29;53.61;100011.56;5113112;28;20044;-67
2023/09/19 11:34:50;;;;;;;1.63;0.73;;;;;;;25.37;53.39;100005.94;5113032;28;20104;-67
2023/09/19 11:38:07;;;;;;;1.83;0.85;;;;;;;25.44;53.23;100000.56;5113053;28;20050;-68
2023/09/19 11:40:35;;;;;;;1.98;1.02;;;;;;;25.50;53.19;100000.66;5112914;28;20108;-68
2023/09/19 11:43:30;;;;;;;1.77;0.93;;;;;;;25.57;52.93;100000.69;5112601;28;20050;-68
2023/09/19 11:46:11;;;;;;;1.70;0.95;;;;;;;25.62;52.83;99996.34;5112664;28;20048;-69
2023/09/19 11:48:41;;;;;;;1.25;0.80;;;;;;;25.68;53.07;99995.56;5112399;28;20061;-68
2023/09/19 11:51:26;;;;;;;2.35;1.00;;;;;;;25.75;52.81;99990.19;5112157;28;20043;-67
2023/09/19 11:53:56;;;;;;;1.60;0.90;;;;;;;25.79;53.01;99980.56;5112363;28;20050;-67
2023/09/19 11:56:27;;;;;;;3.08;1.20;;;;;;;25.85;52.72;99984.38;5112656;28;20043;-68
2023/09/19 11:58:57;;;;;;;1.70;0.90;;;;;;;25.87;52.48;99971.38;5112515;28;20459;-68